Time;durP1;ratioP1;P1;durP2;ratioP2;P2;SDS_P1;SDS_P2;PMS_P1;PMS_P2;Temp;Humidity;BMP_temperature;BMP_pressure;BME280_temperature;BME280_humidity;BME280_pressure;Samples;Min_cycle;Max_cycle;Signal;HPM_P1;HPM_P2
2021/12/02 00:00:28;;;;;;;12.13;4.10;;;;;;;4.04;98.01;99590.28;5019531;28;20388;-72
2021/12/02 00:02:53;;;;;;;13.32;4.50;;;;;;;4.01;98.17;99593.16;5039968;28;20086;-72
2021/12/02 00:05:19;;;;;;;10.45;4.57;;;;;;;3.95;98.57;99588.56;5018917;28;20034;-72
2021/12/02 00:07:44;;;;;;;13.85;4.43;;;;;;;3.96;98.33;99599.66;5034470;28;20427;-72
2021/12/02 00:10:10;;;;;;;17.90;5.13;;;;;;;4.03;98.84;99591.25;5028571;28;20037;-72
2021/12/02 00:12:36;;;;;;;14.75;4.75;;;;;;;4.10;98.44;99591.47;5028178;28;20033;-72
2021/12/02 00:15:07;;;;;;;17.73;5.15;;;;;;;4.01;98.06;99594.91;5027018;28;20033;-72
2021/12/02 00:17:38;;;;;;;11.63;4.70;;;;;;;4.02;98.56;99593.97;5032541;28;20515;-72
2021/12/02 00:23:10;;;;;;;20.90;6.10;;;;;;;3.98;98.84;99595.19;5029351;28;20025;-72
2021/12/02 00:25:35;;;;;;;11.65;5.45;;;;;;;3.94;98.57;99596.41;5026021;28;20428;-72
2021/12/02 00:28:02;;;;;;;25.65;6.78;;;;;;;4.01;98.51;99595.72;5033520;28;20107;-72
2021/12/02 00:30:28;;;;;;;21.25;6.60;;;;;;;4.08;98.49;99599.31;5029863;28;20132;-72
2021/12/02 00:32:56;;;;;;;15.27;5.63;;;;;;;4.10;97.84;99604.31;5034070;28;20025;-72
2021/12/02 00:35:21;;;;;;;16.88;6.15;;;;;;;3.99;98.21;99599.38;5025075;28;20491;-72
2021/12/02 00:37:48;;;;;;;22.27;7.07;;;;;;;4.02;98.32;99601.66;5019624;28;20063;-72
2021/12/02 00:40:14;;;;;;;18.63;6.47;;;;;;;4.00;98.47;99603.56;5021817;28;20045;-72
2021/12/02 00:42:41;;;;;;;19.58;7.32;;;;;;;4.05;98.64;99609.03;5031946;28;20029;-72
2021/12/02 00:45:06;;;;;;;19.10;6.85;;;;;;;4.02;97.93;99609.34;5032624;28;20034;-72
2021/12/02 00:47:33;;;;;;;25.88;7.43;;;;;;;4.10;98.47;99612.81;5037472;28;20029;-72
2021/12/02 00:49:59;;;;;;;22.85;6.85;;;;;;;4.10;97.43;99615.38;5032177;28;20013;-71
2021/12/02 00:52:27;;;;;;;20.95;7.20;;;;;;;4.15;97.36;99614.16;5035034;28;20032;-72
2021/12/02 00:54:54;;;;;;;22.15;6.60;;;;;;;4.05;97.88;99615.00;5037134;28;20024;-72
2021/12/02 00:57:20;;;;;;;15.50;7.00;;;;;;;4.03;97.74;99616.09;5032067;28;20034;-72
2021/12/02 00:59:48;;;;;;;18.13;6.55;;;;;;;4.02;98.02;99617.84;5026294;28;20515;-72
2021/12/02 01:02:15;;;;;;;17.20;6.38;;;;;;;4.21;97.70;99618.72;5037350;28;20112;-72
2021/12/02 01:04:41;;;;;;;22.48;6.38;;;;;;;4.12;97.10;99615.22;5018294;28;20040;-72
2021/12/02 01:07:07;;;;;;;11.98;4.85;;;;;;;4.20;96.42;99620.47;5037413;28;20484;-71
2021/12/02 01:09:33;;;;;;;23.35;6.05;;;;;;;4.12;96.52;99627.25;5037628;28;20120;-72
2021/12/02 01:12:00;;;;;;;14.68;4.45;;;;;;;4.22;96.37;99633.13;5036232;28;20542;-72
2021/12/02 01:14:25;;;;;;;14.00;4.28;;;;;;;4.10;96.22;99630.75;5041399;28;20033;-72
2021/12/02 01:16:52;;;;;;;7.03;3.55;;;;;;;4.05;96.39;99632.97;5038185;28;20275;-72
2021/12/02 01:19:18;;;;;;;13.45;3.92;;;;;;;4.27;95.68;99623.25;5030319;28;20037;-72
2021/12/02 01:21:43;;;;;;;14.48;3.55;;;;;;;4.20;95.43;99627.34;5029514;28;20412;-72
2021/12/02 01:24:14;;;;;;;14.30;3.30;;;;;;;4.22;94.90;99626.25;5033287;28;20041;-72
2021/12/02 01:26:40;;;;;;;15.52;3.75;;;;;;;4.26;94.66;99632.72;5026752;28;20025;-72
2021/12/02 01:29:06;;;;;;;21.63;3.90;;;;;;;4.09;95.27;99624.03;5031873;28;20112;-72
2021/12/02 01:31:34;;;;;;;9.38;2.42;;;;;;;4.17;95.27;99633.56;5037690;28;20515;-72
2021/12/02 01:34:02;;;;;;;17.00;3.35;;;;;;;4.28;94.22;99627.44;5036025;28;20067;-72
2021/12/02 01:36:39;;;;;;;16.13;4.35;;;;;;;4.23;94.10;99629.63;5031831;28;20037;-72
2021/12/02 01:39:06;;;;;;;13.48;3.15;;;;;;;4.17;94.69;99623.31;5019861;28;20029;-72
2021/12/02 01:41:45;;;;;;;14.57;2.83;;;;;;;4.16;94.06;99628.59;5027964;28;20035;-72
2021/12/02 01:44:14;;;;;;;10.25;2.65;;;;;;;4.09;94.98;99623.22;5029646;28;20052;-72
2021/12/02 01:46:41;;;;;;;12.85;2.60;;;;;;;4.15;94.03;99630.34;5025679;28;20021;-72
2021/12/02 01:49:10;;;;;;;9.88;3.38;;;;;;;4.15;94.32;99626.97;5023713;28;20043;-72
2021/12/02 01:51:44;;;;;;;9.63;2.42;;;;;;;4.07;94.93;99627.69;5029424;28;20036;-72
2021/12/02 01:54:12;;;;;;;12.60;2.13;;;;;;;4.13;94.08;99631.44;5035358;28;20175;-72
2021/12/02 01:56:54;;;;;;;9.57;2.30;;;;;;;4.08;93.85;99632.66;5033318;28;20135;-72
2021/12/02 01:59:28;;;;;;;9.40;2.47;;;;;;;4.11;93.60;99636.72;5028335;28;20052;-72
2021/12/02 02:01:57;;;;;;;13.10;2.85;;;;;;;4.01;93.88;99639.34;5028141;28;20077;-71
2021/12/02 02:04:23;;;;;;;9.68;2.47;;;;;;;4.08;93.92;99639.56;5030419;28;20029;-72
2021/12/02 02:07:10;;;;;;;13.57;3.15;;;;;;;4.09;94.04;99643.75;5033726;28;20025;-71
2021/12/02 02:09:36;;;;;;;9.30;2.13;;;;;;;4.19;93.45;99643.69;5023565;28;20120;-72
2021/12/02 02:12:04;;;;;;;9.15;2.60;;;;;;;4.18;92.95;99652.34;5025583;28;20488;-72
2021/12/02 02:14:30;;;;;;;10.95;3.05;;;;;;;4.08;93.71;99637.78;5032148;28;20112;-72
2021/12/02 02:16:57;;;;;;;9.50;2.25;;;;;;;4.00;93.62;99636.91;5028727;28;20175;-72
2021/12/02 02:19:23;;;;;;;9.45;2.50;;;;;;;4.03;93.90;99640.00;5030754;28;20103;-72
2021/12/02 02:21:49;;;;;;;12.18;2.67;;;;;;;3.98;93.78;99646.50;5032366;28;20040;-72
2021/12/02 02:24:17;;;;;;;5.90;1.95;;;;;;;4.07;93.48;99636.19;5027536;28;20032;-72
2021/12/02 02:26:43;;;;;;;11.05;1.73;;;;;;;4.02;92.81;99638.38;5037653;28;20395;-72
2021/12/02 02:29:12;;;;;;;8.48;1.75;;;;;;;3.94;93.29;99632.31;5035152;28;20151;-71
2021/12/02 02:31:41;;;;;;;15.88;2.78;;;;;;;3.91;93.56;99630.84;5033306;28;20512;-71
2021/12/02 02:34:07;;;;;;;11.10;2.15;;;;;;;3.91;92.87;99635.97;5034387;28;20068;-72
2021/12/02 02:36:40;;;;;;;9.38;2.08;;;;;;;4.00;92.77;99642.03;5036004;28;20125;-72
2021/12/02 02:39:05;;;;;;;11.20;3.35;;;;;;;3.97;93.28;99635.41;5035329;28;20037;-72
2021/12/02 02:41:35;;;;;;;10.82;3.22;;;;;;;3.97;93.58;99626.91;5035378;28;20029;-71
2021/12/02 02:44:02;;;;;;;14.18;3.55;;;;;;;3.87;93.49;99634.66;5035097;28;20061;-71
2021/12/02 02:46:31;;;;;;;12.70;2.47;;;;;;;3.92;94.02;99640.19;5029709;28;20037;-72
2021/12/02 02:48:58;;;;;;;10.40;1.83;;;;;;;3.86;93.99;99638.97;5032705;28;20559;-72
2021/12/02 02:51:24;;;;;;;11.55;2.17;;;;;;;4.00;93.78;99647.16;5033798;28;20056;-72
2021/12/02 02:53:52;;;;;;;8.77;1.90;;;;;;;4.05;92.87;99632.13;5025317;28;20061;-72
2021/12/02 02:56:20;;;;;;;11.23;2.08;;;;;;;4.02;93.73;99635.81;5020020;28;20399;-72
2021/12/02 02:59:11;;;;;;;12.70;2.03;;;;;;;3.97;92.99;99632.84;5026516;28;20033;-72
2021/12/02 03:01:47;;;;;;;6.57;1.77;;;;;;;3.92;92.33;99641.91;5000859;28;20531;-72
2021/12/02 03:04:30;;;;;;;11.15;2.10;;;;;;;3.91;93.10;99638.56;5042333;28;20492;-72
2021/12/02 03:07:04;;;;;;;10.25;2.20;;;;;;;3.89;93.00;99643.81;5031577;28;20069;-72
2021/12/02 03:12:05;;;;;;;10.23;1.80;;;;;;;3.81;94.14;99642.91;5024522;28;20029;-72
2021/12/02 03:14:48;;;;;;;12.77;2.60;;;;;;;3.96;93.40;99644.06;5024713;28;20337;-72
2021/12/02 03:17:14;;;;;;;11.82;3.78;;;;;;;3.76;94.41;99639.97;5029549;28;20423;-72
2021/12/02 03:19:41;;;;;;;9.48;2.10;;;;;;;3.70;94.71;99631.88;5026049;28;20030;-71
2021/12/02 03:22:07;;;;;;;11.13;2.50;;;;;;;3.69;94.94;99634.56;5025164;28;20044;-72
2021/12/02 03:24:34;;;;;;;11.82;2.30;;;;;;;3.80;94.06;99631.84;5027032;28;20029;-71
2021/12/02 03:26:59;;;;;;;8.65;1.92;;;;;;;3.70;93.47;99628.50;5030194;28;20037;-72
2021/12/02 03:29:25;;;;;;;10.68;1.80;;;;;;;3.69;93.16;99632.84;5030815;28;20029;-72
2021/12/02 03:31:50;;;;;;;8.07;1.92;;;;;;;3.80;93.19;99639.53;5031775;28;20033;-71
2021/12/02 03:34:16;;;;;;;8.95;1.20;;;;;;;3.77;92.84;99644.13;5027922;28;20037;-72
2021/12/02 03:36:42;;;;;;;5.05;1.10;;;;;;;3.74;92.68;99640.09;5031867;28;20499;-72
2021/12/02 03:39:09;;;;;;;5.32;1.30;;;;;;;3.73;93.00;99638.50;5031188;28;20045;-72
2021/12/02 03:41:37;;;;;;;3.45;0.90;;;;;;;3.66;91.94;99648.47;5026387;28;20315;-72
2021/12/02 03:44:02;;;;;;;12.50;1.15;;;;;;;3.68;92.07;99641.47;5030845;28;20030;-71
2021/12/02 03:46:28;;;;;;;9.25;2.60;;;;;;;3.63;91.89;99642.81;5032502;28;20021;-72
2021/12/02 03:48:55;;;;;;;23.00;7.45;;;;;;;3.49;91.62;99649.22;5033001;28;20531;-72
2021/12/02 03:51:21;;;;;;;15.57;5.30;;;;;;;3.44;91.65;99644.47;5032678;28;20105;-71
2021/12/02 03:53:49;;;;;;;72.40;24.48;;;;;;;3.42;91.90;99640.44;5031367;28;20492;-71
2021/12/02 03:56:15;;;;;;;37.53;12.35;;;;;;;3.39;91.57;99654.34;5024186;28;20044;-72
2021/12/02 03:58:42;;;;;;;201.23;68.97;;;;;;;3.43;91.29;99647.22;5032327;28;20030;-71
2021/12/02 04:01:10;;;;;;;70.00;24.77;;;;;;;3.31;90.94;99655.03;5027729;28;20092;-72
2021/12/02 04:03:36;;;;;;;79.63;29.20;;;;;;;3.24;91.72;99653.97;5017392;28;20605;-72
2021/12/02 04:06:02;;;;;;;56.40;20.20;;;;;;;3.22;92.19;99648.16;5044574;28;20075;-72
2021/12/02 04:08:38;;;;;;;65.60;24.10;;;;;;;3.35;91.49;99642.75;5035317;28;20383;-72
2021/12/02 04:11:17;;;;;;;115.53;46.00;;;;;;;3.31;91.41;99647.34;5029986;28;20037;-71
2021/12/02 04:13:53;;;;;;;41.53;16.77;;;;;;;3.17;92.36;99649.53;5036394;28;20659;-71
2021/12/02 04:16:20;;;;;;;22.65;9.18;;;;;;;3.07;92.86;99649.50;5029195;28;20385;-71
2021/12/02 04:18:46;;;;;;;12.50;5.10;;;;;;;3.09;92.82;99650.22;5030814;28;20134;-72
2021/12/02 04:21:11;;;;;;;12.68;3.53;;;;;;;3.06;92.93;99650.47;5026165;28;20757;-72
2021/12/02 04:23:38;;;;;;;8.82;3.20;;;;;;;3.01;93.00;99653.41;5031416;28;20605;-71
2021/12/02 04:26:03;;;;;;;7.18;2.38;;;;;;;2.96;93.34;99650.47;5035024;28;20083;-71
2021/12/02 04:28:29;;;;;;;7.20;2.08;;;;;;;2.98;93.86;99648.59;5015685;28;20028;-71
2021/12/02 04:30:55;;;;;;;17.08;5.78;;;;;;;2.95;94.01;99648.84;5031038;28;20025;-71
2021/12/02 04:33:20;;;;;;;14.65;5.43;;;;;;;3.01;94.14;99655.97;5038569;28;20380;-71
2021/12/02 04:35:46;;;;;;;9.25;6.15;;;;;;;3.05;94.25;99656.53;5034220;28;20549;-71
2021/12/02 04:38:11;;;;;;;14.55;6.78;;;;;;;3.12;94.16;99655.03;5043275;28;20020;-72
2021/12/02 04:40:41;;;;;;;9.88;5.20;;;;;;;3.13;94.01;99661.78;5020757;28;20025;-71
2021/12/02 04:43:09;;;;;;;10.73;5.37;;;;;;;3.03;94.47;99661.81;5039114;28;20033;-72
2021/12/02 04:45:34;;;;;;;9.93;4.40;;;;;;;3.12;94.42;99658.41;5037784;28;20644;-71
2021/12/02 04:48:00;;;;;;;12.88;4.82;;;;;;;3.09;95.16;99663.81;5039560;28;20028;-71
2021/12/02 04:50:26;;;;;;;15.68;4.00;;;;;;;3.12;95.13;99665.28;5033680;28;20030;-72
2021/12/02 04:52:53;;;;;;;14.50;4.68;;;;;;;3.21;94.71;99664.47;5036033;28;20029;-71
2021/12/02 04:55:20;;;;;;;11.70;5.40;;;;;;;3.27;94.80;99666.50;5040829;28;20503;-71
2021/12/02 04:57:46;;;;;;;15.95;5.05;;;;;;;3.20;94.63;99673.13;5034284;28;20029;-71
2021/12/02 05:00:12;;;;;;;12.02;4.30;;;;;;;3.21;94.34;99674.72;5037127;28;20120;-71
2021/12/02 05:02:40;;;;;;;15.98;4.82;;;;;;;3.17;94.70;99667.47;5022008;28;20029;-71
2021/12/02 05:05:07;;;;;;;16.83;4.05;;;;;;;3.15;94.15;99665.03;5031339;28;20041;-71
2021/12/02 05:07:32;;;;;;;17.58;4.40;;;;;;;3.09;94.75;99666.38;5032115;28;20129;-72
2021/12/02 05:09:58;;;;;;;14.85;4.30;;;;;;;3.14;94.32;99672.84;5011370;28;20124;-71
2021/12/02 05:12:23;;;;;;;15.02;3.42;;;;;;;3.20;93.42;99673.13;5016418;28;20641;-71
2021/12/02 05:14:49;;;;;;;17.45;3.80;;;;;;;3.15;93.61;99670.16;5028515;28;20033;-71
2021/12/02 05:17:14;;;;;;;12.05;3.70;;;;;;;3.11;93.40;99666.25;5012800;28;20095;-71
2021/12/02 05:19:40;;;;;;;9.68;3.20;;;;;;;3.04;93.94;99660.84;5031164;28;20108;-71
2021/12/02 05:22:05;;;;;;;11.18;3.78;;;;;;;3.05;93.93;99665.03;5031315;28;20032;-71
2021/12/02 05:24:31;;;;;;;14.00;4.50;;;;;;;3.08;94.11;99664.75;5028335;28;20042;-71
2021/12/02 05:26:56;;;;;;;7.65;3.20;;;;;;;3.04;94.27;99670.28;5034812;28;20029;-71
2021/12/02 05:29:22;;;;;;;19.27;3.63;;;;;;;3.12;94.00;99663.53;5031081;28;20041;-71
2021/12/02 05:31:47;;;;;;;10.25;3.10;;;;;;;2.99;93.54;99668.13;5031765;28;20029;-71
2021/12/02 05:34:13;;;;;;;19.65;3.70;;;;;;;3.00;94.25;99661.25;5014252;28;20708;-71
2021/12/02 05:36:38;;;;;;;11.93;3.45;;;;;;;2.97;93.78;99658.97;5026775;28;20026;-71
2021/12/02 05:39:04;;;;;;;9.43;2.97;;;;;;;2.93;94.42;99660.97;5033310;28;20352;-71
2021/12/02 05:41:31;;;;;;;11.20;4.07;;;;;;;2.92;94.32;99649.94;5018242;28;20028;-71
2021/12/02 05:43:56;;;;;;;14.23;3.80;;;;;;;2.97;93.69;99653.84;5029224;28;20048;-71
2021/12/02 05:46:22;;;;;;;11.82;3.13;;;;;;;2.81;94.01;99657.75;5036481;28;20033;-71
2021/12/02 05:48:48;;;;;;;9.00;2.95;;;;;;;2.78;93.81;99652.06;5037183;28;20067;-71
2021/12/02 05:51:13;;;;;;;9.15;3.40;;;;;;;2.71;94.53;99655.19;5034313;28;20056;-71
2021/12/02 05:53:39;;;;;;;14.20;2.55;;;;;;;2.80;93.89;99671.47;5030983;28;20059;-71
2021/12/02 05:56:05;;;;;;;15.40;3.28;;;;;;;2.75;93.67;99665.97;5034216;28;20067;-71
2021/12/02 05:58:30;;;;;;;13.40;3.10;;;;;;;2.75;93.49;99667.69;5046908;28;20044;-71
2021/12/02 06:00:56;;;;;;;7.78;2.28;;;;;;;2.78;93.62;99670.00;5026685;28;20041;-71
2021/12/02 06:03:21;;;;;;;10.35;2.58;;;;;;;2.76;93.38;99672.69;5036860;28;20025;-71
2021/12/02 06:05:47;;;;;;;6.30;3.20;;;;;;;2.70;93.58;99686.81;5032775;28;20025;-71
2021/12/02 06:08:14;;;;;;;7.80;1.98;;;;;;;2.82;92.64;99682.38;5027877;28;20032;-71
2021/12/02 06:10:40;;;;;;;9.02;2.22;;;;;;;2.68;92.29;99688.72;5025699;28;20041;-71
2021/12/02 06:13:05;;;;;;;16.70;4.25;;;;;;;2.64;92.65;99691.69;5035264;28;20446;-71
2021/12/02 06:15:31;;;;;;;4.32;1.77;;;;;;;2.61;92.51;99689.38;5032629;28;20029;-71
2021/12/02 06:17:57;;;;;;;11.45;3.17;;;;;;;2.62;92.50;99702.03;5041967;28;20033;-71
2021/12/02 06:20:22;;;;;;;9.13;1.75;;;;;;;2.60;92.27;99696.25;5030714;28;20033;-71
2021/12/02 06:22:48;;;;;;;10.77;1.80;;;;;;;2.59;92.29;99693.81;5033656;28;20041;-71
2021/12/02 06:27:46;;;;;;;6.85;1.98;;;;;;;2.57;92.44;99711.06;5038509;28;20538;-71
2021/12/02 06:30:14;;;;;;;7.40;2.00;;;;;;;2.63;92.66;99719.00;5040356;28;20033;-71
2021/12/02 06:32:39;;;;;;;5.13;2.10;;;;;;;2.66;92.74;99723.88;5032273;28;20037;-71
2021/12/02 06:35:06;;;;;;;14.00;2.40;;;;;;;2.61;92.52;99717.53;5032470;28;20086;-71
2021/12/02 06:37:31;;;;;;;7.93;2.13;;;;;;;2.73;92.96;99721.59;5032791;28;20037;-71
2021/12/02 06:39:57;;;;;;;8.15;1.70;;;;;;;2.59;92.81;99727.09;5035319;28;20523;-71
2021/12/02 06:42:22;;;;;;;9.15;3.03;;;;;;;2.61;93.13;99726.00;5024353;28;20029;-71
2021/12/02 06:44:48;;;;;;;13.07;2.13;;;;;;;2.57;93.56;99724.66;5035560;28;20045;-71
2021/12/02 06:47:14;;;;;;;6.72;2.22;;;;;;;2.58;93.47;99733.13;5032063;28;20021;-71
2021/12/02 06:49:40;;;;;;;8.48;2.20;;;;;;;2.64;93.33;99730.06;5030213;28;20134;-71
2021/12/02 06:52:11;;;;;;;12.65;4.50;;;;;;;2.66;93.08;99741.78;5021549;28;20041;-71
2021/12/02 06:54:37;;;;;;;7.38;2.63;;;;;;;2.69;92.81;99735.59;5035180;28;20077;-71
2021/12/02 06:57:03;;;;;;;6.05;2.42;;;;;;;2.54;93.30;99732.59;5027477;28;20129;-71
2021/12/02 06:59:29;;;;;;;8.18;2.65;;;;;;;2.71;93.21;99741.38;5031957;28;20127;-71
2021/12/02 07:01:54;;;;;;;4.88;2.20;;;;;;;2.64;93.41;99738.56;5023831;28;20032;-71
2021/12/02 07:04:21;;;;;;;6.50;2.25;;;;;;;2.70;92.99;99744.91;5035423;28;20036;-71
2021/12/02 07:06:46;;;;;;;14.82;2.45;;;;;;;2.63;93.49;99749.72;5023821;28;20022;-71
2021/12/02 07:09:12;;;;;;;10.90;2.47;;;;;;;2.69;93.48;99749.22;5031287;28;20029;-71
2021/12/02 07:11:38;;;;;;;7.20;2.60;;;;;;;2.67;93.39;99751.06;5009260;28;20048;-71
2021/12/02 07:14:07;;;;;;;6.00;2.40;;;;;;;2.68;93.51;99755.28;5027486;28;20025;-71
2021/12/02 07:16:33;;;;;;;6.18;2.35;;;;;;;2.65;93.29;99755.53;5023425;28;20075;-71
2021/12/02 07:19:07;;;;;;;10.80;3.10;;;;;;;2.67;93.38;99768.19;5027266;28;20037;-71
2021/12/02 07:21:36;;;;;;;10.13;2.88;;;;;;;2.64;93.35;99774.41;5021157;28;20094;-71
2021/12/02 07:24:02;;;;;;;5.13;2.65;;;;;;;2.69;93.64;99776.56;5025365;28;20029;-71
2021/12/02 07:26:28;;;;;;;8.85;2.67;;;;;;;2.61;93.20;99769.53;5027740;28;20032;-72
2021/12/02 07:28:53;;;;;;;6.32;3.13;;;;;;;2.71;93.00;99769.53;5024172;28;20021;-71
2021/12/02 07:31:20;;;;;;;7.15;2.60;;;;;;;2.59;92.83;99781.63;5023707;28;20033;-71
2021/12/02 07:33:48;;;;;;;9.07;2.95;;;;;;;2.51;93.25;99784.84;5032839;28;20033;-71
2021/12/02 07:36:15;;;;;;;5.85;2.33;;;;;;;2.60;92.58;99793.50;5029501;28;20037;-71
2021/12/02 07:38:41;;;;;;;5.65;2.58;;;;;;;2.64;92.18;99794.88;5032006;28;20041;-71
2021/12/02 07:41:07;;;;;;;6.03;3.00;;;;;;;2.59;92.56;99797.00;5028181;28;20108;-71
2021/12/02 07:43:36;;;;;;;9.05;2.70;;;;;;;2.56;92.82;99801.56;5032333;28;20025;-71
2021/12/02 07:46:03;;;;;;;7.82;2.63;;;;;;;2.52;92.16;99801.00;5022435;28;20491;-71
2021/12/02 07:48:29;;;;;;;10.45;2.83;;;;;;;2.51;92.65;99807.88;5037803;28;20075;-71
2021/12/02 07:50:59;;;;;;;10.52;4.20;;;;;;;2.52;92.94;99806.97;5030272;28;20033;-71
2021/12/02 07:53:26;;;;;;;5.97;3.15;;;;;;;2.46;93.24;99806.63;5034876;28;20032;-71
2021/12/02 07:55:55;;;;;;;7.00;3.10;;;;;;;2.45;93.64;99816.06;5029732;28;20039;-71
2021/12/02 07:58:22;;;;;;;5.78;2.38;;;;;;;2.64;92.63;99814.53;5034222;28;20504;-72
2021/12/02 08:00:49;;;;;;;4.57;2.33;;;;;;;2.68;92.23;99821.03;5030862;28;20044;-71
2021/12/02 08:03:15;;;;;;;3.63;1.80;;;;;;;2.60;91.64;99825.97;5026636;28;20028;-71
2021/12/02 08:05:42;;;;;;;10.45;2.58;;;;;;;2.59;92.21;99826.91;5028198;28;20415;-71
2021/12/02 08:08:08;;;;;;;3.55;1.77;;;;;;;2.63;91.52;99835.94;5008918;28;20022;-71
2021/12/02 08:10:34;;;;;;;4.28;1.95;;;;;;;2.55;91.48;99844.28;5027516;28;20046;-71
2021/12/02 08:13:02;;;;;;;9.48;2.38;;;;;;;2.44;92.23;99831.56;5029589;28;20412;-71
2021/12/02 08:15:28;;;;;;;4.80;1.70;;;;;;;2.41;92.60;99824.13;5028212;28;20044;-71
2021/12/02 08:17:55;;;;;;;2.95;1.98;;;;;;;2.53;92.32;99828.22;5030302;28;20396;-71
2021/12/02 08:20:23;;;;;;;5.50;1.95;;;;;;;2.55;91.96;99831.47;5028099;28;20037;-71
2021/12/02 08:22:48;;;;;;;3.53;1.52;;;;;;;2.51;92.11;99838.59;5026849;28;20045;-71
2021/12/02 08:25:15;;;;;;;2.35;1.80;;;;;;;2.48;91.41;99841.41;5031085;28;20112;-71
2021/12/02 08:27:42;;;;;;;7.10;1.80;;;;;;;2.49;91.47;99853.25;5029070;28;20033;-71
2021/12/02 08:30:11;;;;;;;3.58;2.13;;;;;;;2.50;91.89;99857.44;5030034;28;20116;-71
2021/12/02 08:32:39;;;;;;;4.90;2.25;;;;;;;2.38;92.29;99861.00;5048529;28;20087;-71
2021/12/02 08:35:05;;;;;;;5.97;3.17;;;;;;;2.37;92.71;99868.81;5017858;28;20028;-71
2021/12/02 08:37:33;;;;;;;5.38;2.90;;;;;;;2.39;93.10;99874.63;5006815;28;20076;-72
2021/12/02 08:40:00;;;;;;;6.90;3.00;;;;;;;2.38;93.34;99868.69;5029193;28;20574;-71
2021/12/02 08:42:32;;;;;;;5.40;3.25;;;;;;;2.35;93.28;99876.59;5027111;28;20080;-71
2021/12/02 08:44:58;;;;;;;4.47;3.72;;;;;;;2.37;93.91;99881.59;5040181;28;20399;-71
2021/12/02 08:47:26;;;;;;;9.70;4.30;;;;;;;2.45;94.08;99887.72;5033501;28;20024;-72
2021/12/02 08:49:54;;;;;;;7.70;5.43;;;;;;;2.47;94.46;99885.84;5032610;28;20090;-71
2021/12/02 08:52:22;;;;;;;7.90;5.03;;;;;;;2.58;93.22;99891.81;5033529;28;20065;-71
2021/12/02 08:54:49;;;;;;;9.40;4.85;;;;;;;2.53;93.36;99885.34;5031888;28;20400;-71
2021/12/02 08:57:15;;;;;;;7.40;4.47;;;;;;;2.69;92.37;99889.19;5026450;28;20104;-71
2021/12/02 08:59:43;;;;;;;11.90;4.47;;;;;;;2.73;92.59;99895.69;5040329;28;20515;-71
2021/12/02 09:02:08;;;;;;;6.15;3.75;;;;;;;2.82;91.18;99905.16;5029038;28;20033;-71
2021/12/02 09:04:34;;;;;;;7.88;4.53;;;;;;;2.70;91.53;99898.50;5027983;28;20021;-71
2021/12/02 09:06:59;;;;;;;6.15;3.67;;;;;;;2.64;91.86;99901.59;5032009;28;20064;-71
2021/12/02 09:09:26;;;;;;;7.15;4.10;;;;;;;2.56;92.21;99901.38;5033871;28;20037;-71
2021/12/02 09:11:54;;;;;;;9.48;4.10;;;;;;;2.68;92.32;99908.88;5040382;28;20056;-71
2021/12/02 09:14:19;;;;;;;5.95;4.13;;;;;;;2.62;92.25;99899.16;5037355;28;20473;-71
2021/12/02 09:16:46;;;;;;;9.02;4.68;;;;;;;2.64;91.83;99904.94;5032501;28;20057;-71
2021/12/02 09:19:11;;;;;;;9.13;3.88;;;;;;;2.54;91.67;99901.50;5033867;28;20484;-71
2021/12/02 09:21:37;;;;;;;9.20;3.65;;;;;;;2.56;91.49;99909.06;5032421;28;20480;-72
2021/12/02 09:24:02;;;;;;;10.40;3.70;;;;;;;2.51;91.25;99909.44;5037607;28;20523;-71
2021/12/02 09:26:28;;;;;;;7.78;3.55;;;;;;;2.54;91.28;99919.41;5038227;28;20116;-71
2021/12/02 09:28:56;;;;;;;11.68;4.18;;;;;;;2.57;90.95;99924.31;5006795;28;20048;-71
2021/12/02 09:31:22;;;;;;;8.23;3.50;;;;;;;2.43;90.62;99922.88;5028403;28;20048;-71
2021/12/02 09:33:47;;;;;;;6.10;3.13;;;;;;;2.46;90.35;99919.25;5029555;28;20020;-71
2021/12/02 09:36:13;;;;;;;8.20;3.97;;;;;;;2.47;90.49;99926.81;5025986;28;20034;-71
2021/12/02 09:38:39;;;;;;;12.50;4.40;;;;;;;2.43;90.93;99930.56;5028237;28;20029;-71
2021/12/02 09:41:04;;;;;;;6.97;3.15;;;;;;;2.55;90.81;99938.16;5029353;28;20029;-71
2021/12/02 09:43:31;;;;;;;9.43;3.13;;;;;;;2.69;90.35;99942.94;5029650;28;20095;-71
2021/12/02 09:45:56;;;;;;;5.78;2.97;;;;;;;2.68;90.32;99934.47;5031274;28;20060;-71
2021/12/02 09:48:22;;;;;;;3.83;2.78;;;;;;;2.70;90.46;99935.16;5032249;28;20039;-71
2021/12/02 09:51:02;;;;;;;5.10;2.70;;;;;;;2.75;89.88;99945.03;5025509;28;20030;-71
2021/12/02 09:53:32;;;;;;;6.30;2.80;;;;;;;2.67;89.57;99937.94;5031757;28;20552;-71
2021/12/02 09:56:14;;;;;;;11.85;3.00;;;;;;;2.58;89.62;99946.41;5032961;28;20463;-71
2021/12/02 09:58:40;;;;;;;10.75;3.22;;;;;;;2.62;89.89;99944.38;5004569;28;20060;-71
2021/12/02 10:01:11;;;;;;;6.75;2.50;;;;;;;2.71;89.41;99944.47;5034922;28;20029;-71
2021/12/02 10:03:47;;;;;;;5.43;3.03;;;;;;;2.78;89.77;99943.97;5015317;28;20041;-71
2021/12/02 10:06:25;;;;;;;5.70;2.63;;;;;;;2.73;89.59;99947.72;5034656;28;20494;-71
2021/12/02 10:09:05;;;;;;;5.70;2.75;;;;;;;2.73;89.16;99946.88;5035149;28;20030;-71
2021/12/02 10:14:24;;;;;;;8.35;2.40;;;;;;;2.83;88.73;99955.44;5027441;28;20040;-71
2021/12/02 10:17:04;;;;;;;7.00;2.58;;;;;;;2.89;89.04;99954.94;5033725;28;20044;-71
2021/12/02 10:19:30;;;;;;;10.02;2.25;;;;;;;2.96;88.77;99944.16;5032359;28;20040;-71
2021/12/02 10:22:02;;;;;;;8.35;2.42;;;;;;;2.95;89.42;99956.16;5029720;28;20033;-71
2021/12/02 10:24:29;;;;;;;6.20;2.33;;;;;;;3.04;89.05;99954.59;5026080;28;20218;-71
2021/12/02 10:27:05;;;;;;;7.20;3.08;;;;;;;3.20;88.96;99957.53;5032825;28;20471;-71
2021/12/02 10:29:35;;;;;;;10.80;2.58;;;;;;;3.26;90.06;99949.31;5024879;28;20100;-71
2021/12/02 10:32:24;;;;;;;11.95;3.13;;;;;;;3.47;88.84;99951.00;5026328;28;20033;-71
2021/12/02 10:34:50;;;;;;;8.95;2.72;;;;;;;3.32;88.28;99942.84;5029267;28;20028;-71
2021/12/02 10:37:18;;;;;;;6.10;1.90;;;;;;;3.28;87.83;99951.75;5028304;28;20492;-71
2021/12/02 10:40:14;;;;;;;12.18;2.22;;;;;;;3.24;88.18;99953.75;5031086;28;20128;-71
2021/12/02 10:42:43;;;;;;;6.15;2.13;;;;;;;3.16;88.40;99945.88;5007369;28;20059;-71
2021/12/02 10:45:30;;;;;;;7.90;1.90;;;;;;;3.18;88.51;99949.13;5031780;28;20459;-70
2021/12/02 10:47:56;;;;;;;5.70;2.22;;;;;;;3.22;88.85;99944.56;5031654;28;20029;-71
2021/12/02 10:50:23;;;;;;;4.65;1.85;;;;;;;3.20;88.18;99967.78;5025035;28;20498;-71
2021/12/02 10:52:51;;;;;;;3.35;1.65;;;;;;;3.15;87.88;99951.16;5027181;28;20044;-71
2021/12/02 10:55:23;;;;;;;4.97;1.40;;;;;;;3.03;87.35;99951.25;5019077;28;20041;-71
2021/12/02 10:57:54;;;;;;;3.40;1.38;;;;;;;2.98;86.08;99952.56;5025378;28;20396;-71
2021/12/02 11:00:25;;;;;;;5.03;1.70;;;;;;;2.92;85.89;99959.00;5020563;28;20044;-71
2021/12/02 11:02:53;;;;;;;6.43;1.42;;;;;;;2.83;87.10;99958.00;5026408;28;20116;-71
2021/12/02 11:05:32;;;;;;;7.28;3.10;;;;;;;2.80;86.56;99957.44;5025688;28;20041;-71
2021/12/02 11:08:09;;;;;;;3.53;1.38;;;;;;;2.82;88.05;99958.13;5027155;28;20105;-71
2021/12/02 11:10:41;;;;;;;5.95;1.80;;;;;;;2.83;88.88;99960.56;5038970;28;20045;-71
2021/12/02 11:13:09;;;;;;;5.50;1.90;;;;;;;2.98;89.10;99963.63;5035992;28;20464;-71
2021/12/02 11:15:39;;;;;;;3.42;1.50;;;;;;;2.93;89.24;99961.41;5025170;28;20056;-71
2021/12/02 11:18:08;;;;;;;14.15;2.75;;;;;;;2.95;89.91;99975.84;5038379;28;20038;-71
2021/12/02 11:20:48;;;;;;;4.07;1.90;;;;;;;2.98;89.23;99962.81;5031627;28;20049;-71
2021/12/02 11:23:17;;;;;;;3.15;1.63;;;;;;;2.99;89.70;99961.84;5041561;28;20024;-71
2021/12/02 11:26:08;;;;;;;5.07;1.92;;;;;;;3.14;89.72;99964.91;5038341;28;20278;-71
2021/12/02 11:28:36;;;;;;;10.15;2.20;;;;;;;3.22;89.90;99967.63;5033227;28;20052;-71
2021/12/02 11:31:18;;;;;;;6.15;1.73;;;;;;;3.25;88.20;99968.19;5027139;28;20029;-71
2021/12/02 11:33:45;;;;;;;6.57;1.63;;;;;;;3.24;87.64;99978.53;5035174;28;20033;-71
2021/12/02 11:36:23;;;;;;;5.30;1.98;;;;;;;3.19;86.74;99978.13;5014634;28;20045;-71
2021/12/02 11:38:53;;;;;;;8.70;1.85;;;;;;;3.21;85.86;99982.19;5036881;28;20083;-71
2021/12/02 11:41:19;;;;;;;9.85;2.10;;;;;;;3.20;85.74;99985.72;5026801;28;20041;-71
2021/12/02 11:43:45;;;;;;;6.43;1.85;;;;;;;3.20;86.34;99995.13;5033558;28;20553;-71
2021/12/02 11:46:11;;;;;;;7.00;2.60;;;;;;;3.28;86.36;99991.00;5028251;28;20017;-71
2021/12/02 11:48:41;;;;;;;6.45;1.60;;;;;;;3.28;85.73;99995.31;5033515;28;20080;-71
2021/12/02 11:51:14;;;;;;;6.90;2.00;;;;;;;3.44;85.23;99987.94;5032670;28;20025;-71